sensor_id;sensor_type;location;lat;lon;timestamp;pressure;altitude;pressure_sealevel;temperature;humidity
25080;BME280;13071;48.868;9.996;2023-05-07T00:01:28;96466.69;;;12.32;90.79
25080;BME280;13071;48.868;9.996;2023-05-07T00:03:55;96463.97;;;12.32;90.83
25080;BME280;13071;48.868;9.996;2023-05-07T00:06:21;96462.06;;;12.32;91.08
25080;BME280;13071;48.868;9.996;2023-05-07T00:08:48;96465.16;;;12.46;89.94
25080;BME280;13071;48.868;9.996;2023-05-07T00:11:15;96461.56;;;12.42;89.82
25080;BME280;13071;48.868;9.996;2023-05-07T00:13:41;96467.78;;;12.43;89.85
25080;BME280;13071;48.868;9.996;2023-05-07T00:16:09;96469.94;;;12.37;90.02
25080;BME280;13071;48.868;9.996;2023-05-07T00:18:36;96475.16;;;12.30;90.42
25080;BME280;13071;48.868;9.996;2023-05-07T00:21:03;96470.78;;;12.26;91.28
25080;BME280;13071;48.868;9.996;2023-05-07T00:23:29;96471.00;;;12.21;91.22
25080;BME280;13071;48.868;9.996;2023-05-07T00:25:56;96468.06;;;12.26;91.40
25080;BME280;13071;48.868;9.996;2023-05-07T00:28:23;96456.88;;;12.15;91.89
25080;BME280;13071;48.868;9.996;2023-05-07T00:30:49;96454.78;;;12.08;92.09
25080;BME280;13071;48.868;9.996;2023-05-07T00:33:17;96458.16;;;12.05;92.50
25080;BME280;13071;48.868;9.996;2023-05-07T00:35:45;96458.06;;;12.02;92.84
25080;BME280;13071;48.868;9.996;2023-05-07T00:38:12;96462.94;;;11.96;93.22
25080;BME280;13071;48.868;9.996;2023-05-07T00:40:38;96463.06;;;11.88;94.32
25080;BME280;13071;48.868;9.996;2023-05-07T00:43:05;96461.47;;;11.87;93.95
25080;BME280;13071;48.868;9.996;2023-05-07T00:45:32;96460.00;;;11.89;94.04
25080;BME280;13071;48.868;9.996;2023-05-07T00:48:00;96455.59;;;11.85;93.90
25080;BME280;13071;48.868;9.996;2023-05-07T00:50:29;96454.56;;;11.89;93.94
25080;BME280;13071;48.868;9.996;2023-05-07T00:52:56;96454.16;;;11.87;93.39
25080;BME280;13071;48.868;9.996;2023-05-07T00:55:23;96449.38;;;11.72;93.80
25080;BME280;13071;48.868;9.996;2023-05-07T00:57:50;96445.78;;;11.68;94.15
25080;BME280;13071;48.868;9.996;2023-05-07T01:00:17;96453.22;;;11.71;94.38
25080;BME280;13071;48.868;9.996;2023-05-07T01:02:45;96441.84;;;11.78;94.37
25080;BME280;13071;48.868;9.996;2023-05-07T01:05:13;96434.03;;;11.76;94.38
25080;BME280;13071;48.868;9.996;2023-05-07T01:07:42;96445.59;;;11.73;94.27
25080;BME280;13071;48.868;9.996;2023-05-07T01:10:10;96437.97;;;11.66;94.26
25080;BME280;13071;48.868;9.996;2023-05-07T01:12:37;96434.06;;;11.52;95.55
25080;BME280;13071;48.868;9.996;2023-05-07T01:15:07;96432.13;;;11.52;95.53
25080;BME280;13071;48.868;9.996;2023-05-07T01:17:34;96437.56;;;11.52;95.33
25080;BME280;13071;48.868;9.996;2023-05-07T01:20:01;96434.28;;;11.59;94.94
25080;BME280;13071;48.868;9.996;2023-05-07T01:22:32;96428.97;;;11.62;94.98
25080;BME280;13071;48.868;9.996;2023-05-07T01:25:00;96426.34;;;11.66;94.86
25080;BME280;13071;48.868;9.996;2023-05-07T01:27:27;96430.97;;;11.65;94.72
25080;BME280;13071;48.868;9.996;2023-05-07T01:29:53;96434.47;;;11.66;94.47
25080;BME280;13071;48.868;9.996;2023-05-07T01:32:26;96428.03;;;11.70;94.39
25080;BME280;13071;48.868;9.996;2023-05-07T01:34:54;96435.63;;;11.77;93.51
25080;BME280;13071;48.868;9.996;2023-05-07T01:37:22;96430.31;;;11.81;92.82
25080;BME280;13071;48.868;9.996;2023-05-07T01:39:51;96428.19;;;11.74;92.62
25080;BME280;13071;48.868;9.996;2023-05-07T01:42:18;96425.59;;;11.78;92.61
25080;BME280;13071;48.868;9.996;2023-05-07T01:44:45;96431.25;;;11.73;92.66
25080;BME280;13071;48.868;9.996;2023-05-07T01:47:12;96431.66;;;11.75;93.12
25080;BME280;13071;48.868;9.996;2023-05-07T01:49:40;96424.78;;;11.77;93.62
25080;BME280;13071;48.868;9.996;2023-05-07T01:52:07;96423.44;;;11.83;92.99
25080;BME280;13071;48.868;9.996;2023-05-07T01:54:34;96425.34;;;11.83;92.53
25080;BME280;13071;48.868;9.996;2023-05-07T01:57:02;96428.97;;;11.62;93.73
25080;BME280;13071;48.868;9.996;2023-05-07T01:59:29;96430.88;;;11.62;93.34
25080;BME280;13071;48.868;9.996;2023-05-07T02:01:55;96425.22;;;11.55;93.62
25080;BME280;13071;48.868;9.996;2023-05-07T02:04:22;96429.66;;;11.47;94.09
25080;BME280;13071;48.868;9.996;2023-05-07T02:06:49;96427.94;;;11.55;94.63
25080;BME280;13071;48.868;9.996;2023-05-07T02:09:16;96426.81;;;11.56;94.50
25080;BME280;13071;48.868;9.996;2023-05-07T02:11:43;96421.94;;;11.61;94.24
25080;BME280;13071;48.868;9.996;2023-05-07T02:14:10;96422.97;;;11.57;94.20
25080;BME280;13071;48.868;9.996;2023-05-07T02:16:37;96419.50;;;11.44;93.92
25080;BME280;13071;48.868;9.996;2023-05-07T02:19:04;96414.50;;;11.46;94.04
25080;BME280;13071;48.868;9.996;2023-05-07T02:21:30;96427.16;;;11.54;93.87
25080;BME280;13071;48.868;9.996;2023-05-07T02:23:57;96419.47;;;11.56;92.88
25080;BME280;13071;48.868;9.996;2023-05-07T02:26:23;96426.72;;;11.52;93.15
25080;BME280;13071;48.868;9.996;2023-05-07T02:28:51;96423.66;;;11.54;92.81
25080;BME280;13071;48.868;9.996;2023-05-07T02:31:19;96427.84;;;11.51;92.13
25080;BME280;13071;48.868;9.996;2023-05-07T02:33:45;96423.91;;;11.37;92.53
25080;BME280;13071;48.868;9.996;2023-05-07T02:36:12;96414.44;;;11.18;93.59
25080;BME280;13071;48.868;9.996;2023-05-07T02:38:39;96421.63;;;11.26;93.30
25080;BME280;13071;48.868;9.996;2023-05-07T02:41:05;96422.97;;;11.20;93.86
25080;BME280;13071;48.868;9.996;2023-05-07T02:43:32;96424.78;;;11.16;93.74
25080;BME280;13071;48.868;9.996;2023-05-07T02:46:03;96424.44;;;11.06;94.46
25080;BME280;13071;48.868;9.996;2023-05-07T02:48:31;96426.69;;;10.92;95.62
25080;BME280;13071;48.868;9.996;2023-05-07T02:50:58;96426.69;;;10.92;95.82
25080;BME280;13071;48.868;9.996;2023-05-07T02:53:25;96429.53;;;10.95;95.88
25080;BME280;13071;48.868;9.996;2023-05-07T02:55:52;96433.69;;;10.93;97.09
25080;BME280;13071;48.868;9.996;2023-05-07T02:58:19;96428.97;;;10.90;97.05
25080;BME280;13071;48.868;9.996;2023-05-07T03:00:46;96430.06;;;10.89;96.68
25080;BME280;13071;48.868;9.996;2023-05-07T03:03:12;96430.72;;;10.86;96.08
25080;BME280;13071;48.868;9.996;2023-05-07T03:05:40;96428.25;;;10.80;96.27
25080;BME280;13071;48.868;9.996;2023-05-07T03:08:07;96426.44;;;10.72;96.15
25080;BME280;13071;48.868;9.996;2023-05-07T03:10:35;96426.75;;;10.71;96.54
25080;BME280;13071;48.868;9.996;2023-05-07T03:13:02;96422.50;;;10.70;96.94
25080;BME280;13071;48.868;9.996;2023-05-07T03:15:28;96421.72;;;10.81;96.85
25080;BME280;13071;48.868;9.996;2023-05-07T03:17:55;96425.22;;;10.82;96.75
25080;BME280;13071;48.868;9.996;2023-05-07T03:20:22;96428.34;;;10.72;97.11
25080;BME280;13071;48.868;9.996;2023-05-07T03:22:50;96426.69;;;10.47;98.54
25080;BME280;13071;48.868;9.996;2023-05-07T03:25:16;96422.44;;;10.58;99.18
25080;BME280;13071;48.868;9.996;2023-05-07T03:27:43;96423.03;;;10.63;98.49
25080;BME280;13071;48.868;9.996;2023-05-07T03:30:11;96421.13;;;10.64;97.56
25080;BME280;13071;48.868;9.996;2023-05-07T03:32:38;96424.03;;;10.59;97.24
25080;BME280;13071;48.868;9.996;2023-05-07T03:35:05;96421.44;;;10.62;98.14
25080;BME280;13071;48.868;9.996;2023-05-07T03:37:32;96435.09;;;10.66;98.29
25080;BME280;13071;48.868;9.996;2023-05-07T03:40:00;96429.94;;;10.73;97.63
25080;BME280;13071;48.868;9.996;2023-05-07T03:42:28;96423.28;;;10.82;96.74
25080;BME280;13071;48.868;9.996;2023-05-07T03:44:55;96422.41;;;10.91;95.98
25080;BME280;13071;48.868;9.996;2023-05-07T03:47:21;96420.59;;;10.70;95.14
25080;BME280;13071;48.868;9.996;2023-05-07T03:49:48;96425.63;;;10.72;95.81
25080;BME280;13071;48.868;9.996;2023-05-07T03:52:15;96428.91;;;10.77;96.32
25080;BME280;13071;48.868;9.996;2023-05-07T03:54:47;96418.34;;;10.85;95.53
25080;BME280;13071;48.868;9.996;2023-05-07T03:57:15;96426.47;;;10.97;94.39
25080;BME280;13071;48.868;9.996;2023-05-07T03:59:42;96427.03;;;10.90;94.70
25080;BME280;13071;48.868;9.996;2023-05-07T04:02:08;96432.25;;;10.95;94.20
25080;BME280;13071;48.868;9.996;2023-05-07T04:04:35;96430.34;;;10.63;94.33
25080;BME280;13071;48.868;9.996;2023-05-07T04:07:01;96432.06;;;10.67;95.57
25080;BME280;13071;48.868;9.996;2023-05-07T04:09:28;96434.13;;;10.82;94.33
25080;BME280;13071;48.868;9.996;2023-05-07T04:11:54;96433.00;;;10.83;94.59
25080;BME280;13071;48.868;9.996;2023-05-07T04:14:22;96435.28;;;10.94;94.87
25080;BME280;13071;48.868;9.996;2023-05-07T04:16:49;96432.13;;;11.04;94.41
25080;BME280;13071;48.868;9.996;2023-05-07T04:19:15;96434.72;;;11.12;92.58
25080;BME280;13071;48.868;9.996;2023-05-07T04:21:43;96433.03;;;11.20;92.33
25080;BME280;13071;48.868;9.996;2023-05-07T04:24:09;96431.69;;;11.26;92.15
25080;BME280;13071;48.868;9.996;2023-05-07T04:26:36;96436.53;;;11.33;91.97
25080;BME280;13071;48.868;9.996;2023-05-07T04:29:02;96431.78;;;11.42;91.76
25080;BME280;13071;48.868;9.996;2023-05-07T04:31:30;96443.19;;;11.47;92.08
25080;BME280;13071;48.868;9.996;2023-05-07T04:33:57;96437.66;;;11.56;91.44
25080;BME280;13071;48.868;9.996;2023-05-07T04:36:23;96441.50;;;11.67;91.14
25080;BME280;13071;48.868;9.996;2023-05-07T04:38:52;96438.69;;;11.76;90.31
25080;BME280;13071;48.868;9.996;2023-05-07T04:41:19;96439.69;;;11.83;90.19
25080;BME280;13071;48.868;9.996;2023-05-07T04:43:45;96442.25;;;11.92;89.72
25080;BME280;13071;48.868;9.996;2023-05-07T04:46:12;96444.03;;;12.00;89.65
25080;BME280;13071;48.868;9.996;2023-05-07T04:48:40;96441.66;;;12.10;88.94
25080;BME280;13071;48.868;9.996;2023-05-07T04:51:07;96439.50;;;12.04;88.90
25080;BME280;13071;48.868;9.996;2023-05-07T04:53:33;96452.97;;;12.13;88.80
25080;BME280;13071;48.868;9.996;2023-05-07T04:56:00;96448.91;;;11.94;89.99
25080;BME280;13071;48.868;9.996;2023-05-07T04:58:27;96451.53;;;11.91;89.99
25080;BME280;13071;48.868;9.996;2023-05-07T05:00:56;96450.59;;;12.11;89.42
25080;BME280;13071;48.868;9.996;2023-05-07T05:03:23;96452.72;;;12.45;87.93
25080;BME280;13071;48.868;9.996;2023-05-07T05:05:52;96456.28;;;12.62;87.35
25080;BME280;13071;48.868;9.996;2023-05-07T05:08:19;96453.72;;;12.69;87.01
25080;BME280;13071;48.868;9.996;2023-05-07T05:10:45;96463.22;;;12.75;87.69
25080;BME280;13071;48.868;9.996;2023-05-07T05:13:13;96457.16;;;12.66;87.87
25080;BME280;13071;48.868;9.996;2023-05-07T05:15:40;96467.94;;;12.78;87.18
25080;BME280;13071;48.868;9.996;2023-05-07T05:18:07;96467.00;;;12.86;87.37
25080;BME280;13071;48.868;9.996;2023-05-07T05:20:33;96470.06;;;12.84;89.26
25080;BME280;13071;48.868;9.996;2023-05-07T05:23:01;96463.00;;;12.95;88.27
25080;BME280;13071;48.868;9.996;2023-05-07T05:25:28;96462.00;;;12.88;89.37
25080;BME280;13071;48.868;9.996;2023-05-07T05:27:54;96465.19;;;13.06;88.61
25080;BME280;13071;48.868;9.996;2023-05-07T05:30:21;96470.16;;;12.88;89.50
25080;BME280;13071;48.868;9.996;2023-05-07T05:32:48;96472.22;;;13.07;88.29
25080;BME280;13071;48.868;9.996;2023-05-07T05:35:15;96475.81;;;13.42;86.74
25080;BME280;13071;48.868;9.996;2023-05-07T05:37:41;96473.63;;;13.48;86.37
25080;BME280;13071;48.868;9.996;2023-05-07T05:40:10;96475.41;;;13.56;86.27
25080;BME280;13071;48.868;9.996;2023-05-07T05:42:37;96478.81;;;13.53;87.52
25080;BME280;13071;48.868;9.996;2023-05-07T05:45:04;96469.78;;;13.49;87.34
25080;BME280;13071;48.868;9.996;2023-05-07T05:47:31;96476.81;;;13.50;87.75
25080;BME280;13071;48.868;9.996;2023-05-07T05:49:58;96474.75;;;13.62;87.28
25080;BME280;13071;48.868;9.996;2023-05-07T05:52:24;96477.81;;;13.76;87.17
25080;BME280;13071;48.868;9.996;2023-05-07T05:54:51;96485.34;;;13.83;87.18
25080;BME280;13071;48.868;9.996;2023-05-07T05:57:19;96487.38;;;13.86;87.54
25080;BME280;13071;48.868;9.996;2023-05-07T05:59:46;96479.97;;;13.20;91.16
25080;BME280;13071;48.868;9.996;2023-05-07T06:02:12;96474.88;;;13.34;90.86
25080;BME280;13071;48.868;9.996;2023-05-07T06:04:39;96478.28;;;13.47;89.84
25080;BME280;13071;48.868;9.996;2023-05-07T06:07:07;96478.53;;;13.73;89.04
25080;BME280;13071;48.868;9.996;2023-05-07T06:09:34;96487.63;;;14.16;87.11
25080;BME280;13071;48.868;9.996;2023-05-07T06:12:00;96469.72;;;14.69;85.70
25080;BME280;13071;48.868;9.996;2023-05-07T06:14:28;96477.28;;;15.21;87.01
25080;BME280;13071;48.868;9.996;2023-05-07T06:16:55;96458.56;;;15.65;85.13
25080;BME280;13071;48.868;9.996;2023-05-07T06:19:22;96462.00;;;16.15;79.54
25080;BME280;13071;48.868;9.996;2023-05-07T06:21:49;96470.25;;;16.48;78.56
25080;BME280;13071;48.868;9.996;2023-05-07T06:24:15;96476.63;;;16.89;79.97
25080;BME280;13071;48.868;9.996;2023-05-07T06:26:42;96466.22;;;17.02;77.06
25080;BME280;13071;48.868;9.996;2023-05-07T06:29:09;96474.41;;;17.42;74.25
25080;BME280;13071;48.868;9.996;2023-05-07T06:31:37;96468.88;;;17.79;76.85
25080;BME280;13071;48.868;9.996;2023-05-07T06:34:03;96482.69;;;17.97;73.30
25080;BME280;13071;48.868;9.996;2023-05-07T06:36:30;96479.19;;;18.00;73.21
25080;BME280;13071;48.868;9.996;2023-05-07T06:38:57;96483.00;;;17.85;71.81
25080;BME280;13071;48.868;9.996;2023-05-07T06:41:23;96477.81;;;17.73;75.21
25080;BME280;13071;48.868;9.996;2023-05-07T06:43:51;96481.09;;;17.92;74.24
25080;BME280;13071;48.868;9.996;2023-05-07T06:46:17;96484.59;;;17.89;75.63
25080;BME280;13071;48.868;9.996;2023-05-07T06:48:45;96484.13;;;18.38;71.38
25080;BME280;13071;48.868;9.996;2023-05-07T06:51:12;96490.91;;;18.66;70.36
25080;BME280;13071;48.868;9.996;2023-05-07T06:53:38;96484.41;;;18.98;69.77
25080;BME280;13071;48.868;9.996;2023-05-07T06:56:06;96483.97;;;18.93;67.01
25080;BME280;13071;48.868;9.996;2023-05-07T06:58:32;96482.47;;;19.17;67.55
25080;BME280;13071;48.868;9.996;2023-05-07T07:00:59;96480.53;;;19.28;65.58
25080;BME280;13071;48.868;9.996;2023-05-07T07:03:26;96486.06;;;19.38;68.39
25080;BME280;13071;48.868;9.996;2023-05-07T07:05:54;96486.03;;;19.42;66.59
25080;BME280;13071;48.868;9.996;2023-05-07T07:08:21;96484.50;;;19.59;68.50
25080;BME280;13071;48.868;9.996;2023-05-07T07:10:48;96477.06;;;19.59;66.27
25080;BME280;13071;48.868;9.996;2023-05-07T07:13:14;96480.22;;;19.68;67.07
25080;BME280;13071;48.868;9.996;2023-05-07T07:15:41;96472.72;;;20.15;63.45
25080;BME280;13071;48.868;9.996;2023-05-07T07:18:08;96467.97;;;20.26;63.46
25080;BME280;13071;48.868;9.996;2023-05-07T07:20:34;96476.63;;;20.03;66.67
25080;BME280;13071;48.868;9.996;2023-05-07T07:23:02;96471.56;;;20.02;64.52
25080;BME280;13071;48.868;9.996;2023-05-07T07:25:29;96466.38;;;20.28;62.56
25080;BME280;13071;48.868;9.996;2023-05-07T07:27:55;96474.28;;;20.05;65.38
25080;BME280;13071;48.868;9.996;2023-05-07T07:30:22;96468.31;;;20.56;62.91
25080;BME280;13071;48.868;9.996;2023-05-07T07:32:48;96463.88;;;20.84;61.19
25080;BME280;13071;48.868;9.996;2023-05-07T07:35:15;96463.06;;;20.83;62.88
25080;BME280;13071;48.868;9.996;2023-05-07T07:37:41;96472.91;;;20.77;62.58
25080;BME280;13071;48.868;9.996;2023-05-07T07:40:11;96468.47;;;21.04;60.76
25080;BME280;13071;48.868;9.996;2023-05-07T07:42:38;96466.84;;;21.21;60.44
25080;BME280;13071;48.868;9.996;2023-05-07T07:45:06;96466.13;;;21.03;60.75
25080;BME280;13071;48.868;9.996;2023-05-07T07:47:32;96471.53;;;21.24;61.24
25080;BME280;13071;48.868;9.996;2023-05-07T07:49:59;96468.34;;;21.33;61.89
25080;BME280;13071;48.868;9.996;2023-05-07T07:52:25;96464.75;;;21.39;59.91
25080;BME280;13071;48.868;9.996;2023-05-07T07:54:52;96466.38;;;21.33;61.84
25080;BME280;13071;48.868;9.996;2023-05-07T07:57:20;96472.69;;;21.27;62.31
25080;BME280;13071;48.868;9.996;2023-05-07T07:59:46;96474.25;;;21.31;60.97
25080;BME280;13071;48.868;9.996;2023-05-07T08:02:13;96475.91;;;21.15;58.78
25080;BME280;13071;48.868;9.996;2023-05-07T08:04:40;96472.28;;;21.28;57.91
25080;BME280;13071;48.868;9.996;2023-05-07T08:07:08;96474.59;;;21.40;59.46
25080;BME280;13071;48.868;9.996;2023-05-07T08:09:35;96478.41;;;21.53;58.92
25080;BME280;13071;48.868;9.996;2023-05-07T08:12:02;96473.97;;;21.67;59.33
25080;BME280;13071;48.868;9.996;2023-05-07T08:14:29;96475.19;;;21.62;58.08
25080;BME280;13071;48.868;9.996;2023-05-07T08:16:56;96476.34;;;21.68;58.86
25080;BME280;13071;48.868;9.996;2023-05-07T08:19:23;96480.84;;;21.92;56.74
25080;BME280;13071;48.868;9.996;2023-05-07T08:21:49;96477.00;;;21.83;57.56
25080;BME280;13071;48.868;9.996;2023-05-07T08:24:17;96471.88;;;21.81;56.64
25080;BME280;13071;48.868;9.996;2023-05-07T08:26:43;96478.50;;;21.91;58.00
25080;BME280;13071;48.868;9.996;2023-05-07T08:29:11;96471.06;;;21.88;59.53
25080;BME280;13071;48.868;9.996;2023-05-07T08:31:39;96479.06;;;21.72;56.50
25080;BME280;13071;48.868;9.996;2023-05-07T08:34:05;96471.22;;;21.67;58.99
25080;BME280;13071;48.868;9.996;2023-05-07T08:36:33;96468.69;;;21.90;59.58
25080;BME280;13071;48.868;9.996;2023-05-07T08:38:59;96469.38;;;22.01;57.09
25080;BME280;13071;48.868;9.996;2023-05-07T08:41:26;96473.91;;;22.22;56.68
25080;BME280;13071;48.868;9.996;2023-05-07T08:43:57;96476.19;;;22.30;56.72
25080;BME280;13071;48.868;9.996;2023-05-07T08:46:25;96469.03;;;22.36;54.89
25080;BME280;13071;48.868;9.996;2023-05-07T08:48:53;96481.13;;;22.46;56.50
25080;BME280;13071;48.868;9.996;2023-05-07T08:51:21;96473.31;;;22.41;55.40
25080;BME280;13071;48.868;9.996;2023-05-07T08:53:48;96468.75;;;22.61;55.83
25080;BME280;13071;48.868;9.996;2023-05-07T08:56:16;96466.41;;;22.60;54.22
25080;BME280;13071;48.868;9.996;2023-05-07T08:58:44;96465.66;;;22.56;54.84
25080;BME280;13071;48.868;9.996;2023-05-07T09:01:13;96469.06;;;22.70;54.77
25080;BME280;13071;48.868;9.996;2023-05-07T09:03:42;96470.66;;;22.68;55.98
25080;BME280;13071;48.868;9.996;2023-05-07T09:06:11;96468.41;;;22.22;56.17
25080;BME280;13071;48.868;9.996;2023-05-07T09:08:38;96457.66;;;22.34;56.72
25080;BME280;13071;48.868;9.996;2023-05-07T09:11:04;96464.81;;;22.28;54.85
25080;BME280;13071;48.868;9.996;2023-05-07T09:13:31;96466.28;;;22.36;55.95
25080;BME280;13071;48.868;9.996;2023-05-07T09:15:58;96469.09;;;22.33;54.90
25080;BME280;13071;48.868;9.996;2023-05-07T09:18:24;96465.59;;;22.25;55.28
25080;BME280;13071;48.868;9.996;2023-05-07T09:20:51;96468.00;;;22.23;54.46
25080;BME280;13071;48.868;9.996;2023-05-07T09:23:20;96466.22;;;21.54;53.61
25080;BME280;13071;48.868;9.996;2023-05-07T09:25:46;96459.78;;;21.75;55.30
25080;BME280;13071;48.868;9.996;2023-05-07T09:28:13;96462.31;;;21.48;59.54
25080;BME280;13071;48.868;9.996;2023-05-07T09:30:40;96467.88;;;21.93;56.23
25080;BME280;13071;48.868;9.996;2023-05-07T09:33:06;96467.25;;;22.19;53.51
25080;BME280;13071;48.868;9.996;2023-05-07T09:35:33;96462.81;;;22.29;53.08
25080;BME280;13071;48.868;9.996;2023-05-07T09:38:00;96465.44;;;22.43;53.18
25080;BME280;13071;48.868;9.996;2023-05-07T09:40:30;96477.69;;;22.35;51.29
25080;BME280;13071;48.868;9.996;2023-05-07T09:43:08;96467.34;;;22.46;51.17
25080;BME280;13071;48.868;9.996;2023-05-07T09:45:36;96469.00;;;22.40;52.20
25080;BME280;13071;48.868;9.996;2023-05-07T09:48:04;96469.78;;;22.03;54.02
25080;BME280;13071;48.868;9.996;2023-05-07T09:50:36;96467.13;;;21.89;56.81
25080;BME280;13071;48.868;9.996;2023-05-07T09:53:03;96470.47;;;22.14;55.53
25080;BME280;13071;48.868;9.996;2023-05-07T09:55:32;96461.25;;;21.83;55.72
25080;BME280;13071;48.868;9.996;2023-05-07T09:57:59;96463.09;;;22.01;53.55
25080;BME280;13071;48.868;9.996;2023-05-07T10:00:28;96459.97;;;21.99;52.85
25080;BME280;13071;48.868;9.996;2023-05-07T10:02:56;96460.13;;;21.77;56.49
25080;BME280;13071;48.868;9.996;2023-05-07T10:05:23;96463.53;;;21.92;55.95
25080;BME280;13071;48.868;9.996;2023-05-07T10:07:52;96461.50;;;22.03;54.15
25080;BME280;13071;48.868;9.996;2023-05-07T10:10:19;96463.91;;;22.38;52.00
25080;BME280;13071;48.868;9.996;2023-05-07T10:12:48;96454.78;;;22.42;52.05
25080;BME280;13071;48.868;9.996;2023-05-07T10:15:16;96455.97;;;22.44;52.75
25080;BME280;13071;48.868;9.996;2023-05-07T10:17:43;96448.47;;;22.45;53.40
25080;BME280;13071;48.868;9.996;2023-05-07T10:20:10;96455.66;;;22.72;51.92
25080;BME280;13071;48.868;9.996;2023-05-07T10:22:39;96462.50;;;22.91;50.48
25080;BME280;13071;48.868;9.996;2023-05-07T10:25:14;96461.13;;;22.76;51.79
25080;BME280;13071;48.868;9.996;2023-05-07T10:27:43;96449.31;;;22.75;52.97
25080;BME280;13071;48.868;9.996;2023-05-07T10:30:21;96451.25;;;23.09;51.86
25080;BME280;13071;48.868;9.996;2023-05-07T10:32:56;96457.97;;;22.77;52.77
25080;BME280;13071;48.868;9.996;2023-05-07T10:35:26;96456.06;;;22.71;54.43
25080;BME280;13071;48.868;9.996;2023-05-07T10:37:55;96452.53;;;23.01;51.39
25080;BME280;13071;48.868;9.996;2023-05-07T10:40:22;96448.94;;;23.04;52.43
25080;BME280;13071;48.868;9.996;2023-05-07T10:42:56;96451.03;;;23.23;52.46
25080;BME280;13071;48.868;9.996;2023-05-07T10:45:26;96455.34;;;22.97;51.59
25080;BME280;13071;48.868;9.996;2023-05-07T10:48:07;96442.22;;;22.74;55.15
25080;BME280;13071;48.868;9.996;2023-05-07T10:50:33;96446.72;;;22.24;52.76
25080;BME280;13071;48.868;9.996;2023-05-07T10:53:23;96444.38;;;22.56;52.29
25080;BME280;13071;48.868;9.996;2023-05-07T10:56:24;96445.75;;;22.75;52.46
25080;BME280;13071;48.868;9.996;2023-05-07T10:58:51;96443.31;;;22.84;52.83
25080;BME280;13071;48.868;9.996;2023-05-07T11:01:51;96449.75;;;22.70;53.22
25080;BME280;13071;48.868;9.996;2023-05-07T11:04:18;96445.84;;;22.68;53.50
25080;BME280;13071;48.868;9.996;2023-05-07T11:07:15;96441.28;;;22.88;52.51
25080;BME280;13071;48.868;9.996;2023-05-07T11:10:01;96439.78;;;23.10;53.33
25080;BME280;13071;48.868;9.996;2023-05-07T11:12:48;96453.69;;;22.73;53.55
25080;BME280;13071;48.868;9.996;2023-05-07T11:15:33;96452.91;;;22.69;52.88
25080;BME280;13071;48.868;9.996;2023-05-07T11:18:02;96437.34;;;22.52;54.54
25080;BME280;13071;48.868;9.996;2023-05-07T11:23:55;96426.78;;;22.80;52.97
25080;BME280;13071;48.868;9.996;2023-05-07T11:26:22;96425.91;;;22.87;55.06
25080;BME280;13071;48.868;9.996;2023-05-07T11:28:49;96427.97;;;22.79;58.63
25080;BME280;13071;48.868;9.996;2023-05-07T11:31:21;96425.59;;;22.81;53.34
25080;BME280;13071;48.868;9.996;2023-05-07T11:33:51;96438.47;;;22.92;56.05
25080;BME280;13071;48.868;9.996;2023-05-07T11:36:18;96426.03;;;23.07;54.73
25080;BME280;13071;48.868;9.996;2023-05-07T11:38:46;96429.00;;;23.19;55.00
25080;BME280;13071;48.868;9.996;2023-05-07T11:41:12;96429.09;;;23.39;53.92
25080;BME280;13071;48.868;9.996;2023-05-07T11:43:54;96424.22;;;23.23;51.79
25080;BME280;13071;48.868;9.996;2023-05-07T11:46:21;96434.13;;;22.91;53.38
25080;BME280;13071;48.868;9.996;2023-05-07T11:48:47;96430.25;;;22.85;53.14
25080;BME280;13071;48.868;9.996;2023-05-07T11:53:45;96427.03;;;22.59;54.62
25080;BME280;13071;48.868;9.996;2023-05-07T11:56:13;96425.47;;;22.55;55.10
25080;BME280;13071;48.868;9.996;2023-05-07T11:58:40;96425.72;;;23.01;54.27
25080;BME280;13071;48.868;9.996;2023-05-07T12:01:08;96412.41;;;23.19;53.26
25080;BME280;13071;48.868;9.996;2023-05-07T12:03:35;96415.03;;;23.30;51.48
25080;BME280;13071;48.868;9.996;2023-05-07T12:06:02;96415.25;;;23.43;51.63
25080;BME280;13071;48.868;9.996;2023-05-07T12:08:36;96407.00;;;23.39;55.18
25080;BME280;13071;48.868;9.996;2023-05-07T12:11:03;96410.88;;;23.45;55.29
25080;BME280;13071;48.868;9.996;2023-05-07T12:13:29;96404.13;;;23.19;55.46
25080;BME280;13071;48.868;9.996;2023-05-07T12:15:56;96414.59;;;23.05;55.15
25080;BME280;13071;48.868;9.996;2023-05-07T12:18:23;96417.84;;;22.69;55.00
25080;BME280;13071;48.868;9.996;2023-05-07T12:20:51;96420.66;;;22.96;56.14
25080;BME280;13071;48.868;9.996;2023-05-07T12:23:18;96415.63;;;23.18;52.38
25080;BME280;13071;48.868;9.996;2023-05-07T12:25:46;96426.38;;;23.36;54.10
25080;BME280;13071;48.868;9.996;2023-05-07T12:28:13;96420.09;;;23.08;53.28
25080;BME280;13071;48.868;9.996;2023-05-07T12:30:41;96425.91;;;23.41;52.90
25080;BME280;13071;48.868;9.996;2023-05-07T12:33:08;96412.47;;;23.16;53.23
25080;BME280;13071;48.868;9.996;2023-05-07T12:35:37;96414.00;;;23.20;51.68
25080;BME280;13071;48.868;9.996;2023-05-07T12:38:08;96416.91;;;23.37;52.18
25080;BME280;13071;48.868;9.996;2023-05-07T12:40:35;96420.19;;;23.55;51.92
25080;BME280;13071;48.868;9.996;2023-05-07T12:43:03;96414.59;;;23.58;51.60
25080;BME280;13071;48.868;9.996;2023-05-07T12:45:30;96423.97;;;23.64;51.30
25080;BME280;13071;48.868;9.996;2023-05-07T12:48:01;96419.44;;;23.78;54.53
25080;BME280;13071;48.868;9.996;2023-05-07T12:50:31;96409.44;;;23.60;52.23
25080;BME280;13071;48.868;9.996;2023-05-07T12:52:58;96415.72;;;23.88;49.98
25080;BME280;13071;48.868;9.996;2023-05-07T12:55:24;96403.53;;;24.05;48.89
25080;BME280;13071;48.868;9.996;2023-05-07T12:57:52;96406.66;;;24.07;49.12
25080;BME280;13071;48.868;9.996;2023-05-07T13:00:33;96405.19;;;24.02;50.46
25080;BME280;13071;48.868;9.996;2023-05-07T13:03:00;96413.59;;;23.95;50.44
25080;BME280;13071;48.868;9.996;2023-05-07T13:05:27;96412.88;;;23.68;51.09
25080;BME280;13071;48.868;9.996;2023-05-07T13:07:54;96414.47;;;23.89;49.97
25080;BME280;13071;48.868;9.996;2023-05-07T13:10:21;96409.44;;;23.84;50.89